TGPY/GND METAR and TAF weather

Enter ICAO airport designator
Station Type Date Time Source
TGPY METAR 2021/09/16 11:00 UTC NOAA

TGPY 161100Z 06005KT 9999 SCT018 28/25 Q1015 NOSIG ADJ SHRA-NE S


Station Type Date Time Source
TGPY Decoded METAR 2021/09/16 11:00 UTC NOAA

Point Salines Airport, Grenada (TGPY) 12-00N 061-47W 7M
Sep 16, 2021 - 07:00 AM EDT / 2021.09.16 1100 UTC
Wind: from the ENE (060 degrees) at 6 MPH (5 KT):0
Visibility: greater than 7 mile(s):0
Sky conditions: partly cloudy
Temperature: 82 F (28 C)
Dew Point: 77 F (25 C)
Relative Humidity: 83%
Pressure (altimeter): 29.97 in. Hg (1015 hPa)
ob: TGPY 161100Z 06005KT 9999 SCT018 28/25 Q1015 NOSIG ADJ SHRA-NE S
cycle: 11

Station Type Date Time Source
TGPY TAF 2021/09/16 12:33 UTC NOAA

TAF TAF TGPY 160900Z 1612/1712 09015KT 9999 SCT019

Example: see airport list